sensor_id;sensor_type;location;lat;lon;timestamp;temperature;humidity
64689;DHT22;62504;46.070;14.492;2022-08-01T00:01:04;21.80;99.90
64689;DHT22;62504;46.070;14.492;2022-08-01T00:03:30;21.80;99.90
64689;DHT22;62504;46.070;14.492;2022-08-01T00:05:57;21.80;99.90
64689;DHT22;62504;46.070;14.492;2022-08-01T00:08:23;21.80;99.90
64689;DHT22;62504;46.070;14.492;2022-08-01T00:10:49;21.90;99.90
64689;DHT22;62504;46.070;14.492;2022-08-01T00:13:14;21.70;99.90
64689;DHT22;62504;46.070;14.492;2022-08-01T00:15:40;21.70;99.90
64689;DHT22;62504;46.070;14.492;2022-08-01T00:18:05;21.70;99.90
64689;DHT22;62504;46.070;14.492;2022-08-01T00:20:31;21.80;99.90
64689;DHT22;62504;46.070;14.492;2022-08-01T00:22:57;21.70;99.90
64689;DHT22;62504;46.070;14.492;2022-08-01T00:25:23;21.70;99.90
64689;DHT22;62504;46.070;14.492;2022-08-01T00:27:48;21.60;99.90
64689;DHT22;62504;46.070;14.492;2022-08-01T00:30:14;21.70;99.90
64689;DHT22;62504;46.070;14.492;2022-08-01T00:32:41;21.70;99.90
64689;DHT22;62504;46.070;14.492;2022-08-01T00:35:07;21.70;99.90
64689;DHT22;62504;46.070;14.492;2022-08-01T00:37:32;21.40;99.90
64689;DHT22;62504;46.070;14.492;2022-08-01T00:39:58;21.50;99.90
64689;DHT22;62504;46.070;14.492;2022-08-01T00:42:23;21.40;99.90
64689;DHT22;62504;46.070;14.492;2022-08-01T00:44:49;21.50;99.90
64689;DHT22;62504;46.070;14.492;2022-08-01T00:47:15;21.50;99.90
64689;DHT22;62504;46.070;14.492;2022-08-01T00:49:40;21.50;99.90
64689;DHT22;62504;46.070;14.492;2022-08-01T00:52:07;21.50;99.90
64689;DHT22;62504;46.070;14.492;2022-08-01T00:54:33;21.50;99.90
64689;DHT22;62504;46.070;14.492;2022-08-01T00:56:59;21.40;99.90
64689;DHT22;62504;46.070;14.492;2022-08-01T00:59:26;21.50;99.90
64689;DHT22;62504;46.070;14.492;2022-08-01T01:01:52;21.50;99.90
64689;DHT22;62504;46.070;14.492;2022-08-01T01:04:17;21.40;99.90
64689;DHT22;62504;46.070;14.492;2022-08-01T01:20:37;21.60;99.90
64689;DHT22;62504;46.070;14.492;2022-08-01T01:31:48;21.70;99.90
64689;DHT22;62504;46.070;14.492;2022-08-01T01:34:18;21.50;99.90
64689;DHT22;62504;46.070;14.492;2022-08-01T01:36:46;21.40;99.90
64689;DHT22;62504;46.070;14.492;2022-08-01T01:39:13;21.30;99.90
64689;DHT22;62504;46.070;14.492;2022-08-01T01:41:40;21.40;99.90
64689;DHT22;62504;46.070;14.492;2022-08-01T01:44:07;21.50;99.90
64689;DHT22;62504;46.070;14.492;2022-08-01T01:46:36;21.50;99.90
64689;DHT22;62504;46.070;14.492;2022-08-01T01:49:02;21.40;99.90
64689;DHT22;62504;46.070;14.492;2022-08-01T01:51:28;21.30;99.90
64689;DHT22;62504;46.070;14.492;2022-08-01T01:53:56;21.20;99.90
64689;DHT22;62504;46.070;14.492;2022-08-01T01:56:23;21.20;99.90
64689;DHT22;62504;46.070;14.492;2022-08-01T01:58:56;21.20;99.90
64689;DHT22;62504;46.070;14.492;2022-08-01T02:01:25;21.10;99.90
64689;DHT22;62504;46.070;14.492;2022-08-01T02:03:52;21.10;99.90
64689;DHT22;62504;46.070;14.492;2022-08-01T02:06:20;21.00;99.90
64689;DHT22;62504;46.070;14.492;2022-08-01T02:08:48;21.10;99.90
64689;DHT22;62504;46.070;14.492;2022-08-01T02:11:13;21.00;99.90
64689;DHT22;62504;46.070;14.492;2022-08-01T02:14:06;21.00;99.90
64689;DHT22;62504;46.070;14.492;2022-08-01T02:16:37;21.00;99.90
64689;DHT22;62504;46.070;14.492;2022-08-01T02:19:05;20.90;99.90
64689;DHT22;62504;46.070;14.492;2022-08-01T02:21:42;20.90;99.90
64689;DHT22;62504;46.070;14.492;2022-08-01T02:24:22;20.80;99.90
64689;DHT22;62504;46.070;14.492;2022-08-01T02:26:52;20.80;99.90
64689;DHT22;62504;46.070;14.492;2022-08-01T02:29:29;20.90;99.90
64689;DHT22;62504;46.070;14.492;2022-08-01T02:31:58;20.90;99.90
64689;DHT22;62504;46.070;14.492;2022-08-01T02:34:25;20.80;99.90
64689;DHT22;62504;46.070;14.492;2022-08-01T02:36:54;20.70;99.90
64689;DHT22;62504;46.070;14.492;2022-08-01T02:39:22;20.70;99.90
64689;DHT22;62504;46.070;14.492;2022-08-01T02:41:55;20.80;99.90
64689;DHT22;62504;46.070;14.492;2022-08-01T02:44:30;20.80;99.90
64689;DHT22;62504;46.070;14.492;2022-08-01T02:47:00;20.80;99.90
64689;DHT22;62504;46.070;14.492;2022-08-01T02:49:30;20.70;99.90
64689;DHT22;62504;46.070;14.492;2022-08-01T02:51:57;20.60;99.90
64689;DHT22;62504;46.070;14.492;2022-08-01T02:54:24;20.60;99.90
64689;DHT22;62504;46.070;14.492;2022-08-01T02:56:51;20.60;99.90
64689;DHT22;62504;46.070;14.492;2022-08-01T02:59:19;20.70;99.90
64689;DHT22;62504;46.070;14.492;2022-08-01T03:01:52;20.70;99.90
64689;DHT22;62504;46.070;14.492;2022-08-01T03:04:20;20.60;99.90
64689;DHT22;62504;46.070;14.492;2022-08-01T03:06:47;20.50;99.90
64689;DHT22;62504;46.070;14.492;2022-08-01T03:09:14;20.50;99.90
64689;DHT22;62504;46.070;14.492;2022-08-01T03:11:41;20.50;99.90
64689;DHT22;62504;46.070;14.492;2022-08-01T03:14:09;20.30;99.90
64689;DHT22;62504;46.070;14.492;2022-08-01T03:16:38;20.30;99.90
64689;DHT22;62504;46.070;14.492;2022-08-01T03:19:07;20.10;99.90
64689;DHT22;62504;46.070;14.492;2022-08-01T03:21:34;20.30;99.90
64689;DHT22;62504;46.070;14.492;2022-08-01T03:24:01;20.50;99.90
64689;DHT22;62504;46.070;14.492;2022-08-01T03:26:30;20.60;99.90
64689;DHT22;62504;46.070;14.492;2022-08-01T03:28:59;20.60;99.90
64689;DHT22;62504;46.070;14.492;2022-08-01T03:31:28;20.70;99.90
64689;DHT22;62504;46.070;14.492;2022-08-01T03:33:54;20.80;99.90
64689;DHT22;62504;46.070;14.492;2022-08-01T03:36:24;20.70;99.90
64689;DHT22;62504;46.070;14.492;2022-08-01T03:38:52;20.90;99.90
64689;DHT22;62504;46.070;14.492;2022-08-01T03:41:21;20.90;99.90
64689;DHT22;62504;46.070;14.492;2022-08-01T03:43:56;20.80;99.90
64689;DHT22;62504;46.070;14.492;2022-08-01T03:46:26;20.90;99.90
64689;DHT22;62504;46.070;14.492;2022-08-01T03:48:55;20.70;99.90
64689;DHT22;62504;46.070;14.492;2022-08-01T03:51:24;20.60;99.90
64689;DHT22;62504;46.070;14.492;2022-08-01T03:53:50;20.70;99.90
64689;DHT22;62504;46.070;14.492;2022-08-01T03:56:18;20.70;99.90
64689;DHT22;62504;46.070;14.492;2022-08-01T03:58:45;20.70;99.90
64689;DHT22;62504;46.070;14.492;2022-08-01T04:01:11;20.60;99.90
64689;DHT22;62504;46.070;14.492;2022-08-01T04:03:38;20.60;99.90
64689;DHT22;62504;46.070;14.492;2022-08-01T04:06:05;20.60;99.90
64689;DHT22;62504;46.070;14.492;2022-08-01T04:08:37;20.60;99.90
64689;DHT22;62504;46.070;14.492;2022-08-01T04:11:03;20.60;99.90
64689;DHT22;62504;46.070;14.492;2022-08-01T04:13:29;20.50;99.90
64689;DHT22;62504;46.070;14.492;2022-08-01T04:15:55;20.50;99.90
64689;DHT22;62504;46.070;14.492;2022-08-01T04:18:21;20.60;99.90
64689;DHT22;62504;46.070;14.492;2022-08-01T04:20:47;20.50;99.90
64689;DHT22;62504;46.070;14.492;2022-08-01T04:23:16;20.50;99.90
64689;DHT22;62504;46.070;14.492;2022-08-01T04:25:44;20.50;99.90
64689;DHT22;62504;46.070;14.492;2022-08-01T04:28:13;20.10;99.90
64689;DHT22;62504;46.070;14.492;2022-08-01T04:30:43;20.10;99.90
64689;DHT22;62504;46.070;14.492;2022-08-01T04:33:14;20.20;99.90
64689;DHT22;62504;46.070;14.492;2022-08-01T04:35:44;20.20;99.90
64689;DHT22;62504;46.070;14.492;2022-08-01T04:38:12;20.20;99.90
64689;DHT22;62504;46.070;14.492;2022-08-01T04:40:40;20.20;99.90
64689;DHT22;62504;46.070;14.492;2022-08-01T04:43:07;20.20;99.90
64689;DHT22;62504;46.070;14.492;2022-08-01T04:45:33;20.20;99.90
64689;DHT22;62504;46.070;14.492;2022-08-01T04:48:00;20.30;99.90
64689;DHT22;62504;46.070;14.492;2022-08-01T04:50:27;20.30;99.90
64689;DHT22;62504;46.070;14.492;2022-08-01T04:52:53;20.20;99.90
64689;DHT22;62504;46.070;14.492;2022-08-01T04:55:18;20.10;99.90
64689;DHT22;62504;46.070;14.492;2022-08-01T04:57:46;20.00;99.90
64689;DHT22;62504;46.070;14.492;2022-08-01T05:00:12;20.00;99.90
64689;DHT22;62504;46.070;14.492;2022-08-01T05:02:38;20.00;99.90
64689;DHT22;62504;46.070;14.492;2022-08-01T05:05:04;20.00;99.90
64689;DHT22;62504;46.070;14.492;2022-08-01T05:07:32;20.10;99.90
64689;DHT22;62504;46.070;14.492;2022-08-01T05:09:58;20.30;99.90
64689;DHT22;62504;46.070;14.492;2022-08-01T05:12:23;20.40;99.90
64689;DHT22;62504;46.070;14.492;2022-08-01T05:14:49;20.50;99.90
64689;DHT22;62504;46.070;14.492;2022-08-01T05:17:15;20.60;99.90
64689;DHT22;62504;46.070;14.492;2022-08-01T05:19:42;20.80;99.90
64689;DHT22;62504;46.070;14.492;2022-08-01T05:22:09;20.90;99.90
64689;DHT22;62504;46.070;14.492;2022-08-01T05:24:39;20.80;99.90
64689;DHT22;62504;46.070;14.492;2022-08-01T05:27:06;21.00;99.90
64689;DHT22;62504;46.070;14.492;2022-08-01T05:29:34;21.10;99.90
64689;DHT22;62504;46.070;14.492;2022-08-01T05:32:00;21.10;99.90
64689;DHT22;62504;46.070;14.492;2022-08-01T05:34:26;21.10;99.90
64689;DHT22;62504;46.070;14.492;2022-08-01T05:36:52;21.20;99.90
64689;DHT22;62504;46.070;14.492;2022-08-01T05:39:18;21.00;99.90
64689;DHT22;62504;46.070;14.492;2022-08-01T05:41:43;21.20;99.90
64689;DHT22;62504;46.070;14.492;2022-08-01T05:44:09;21.30;99.90
64689;DHT22;62504;46.070;14.492;2022-08-01T05:46:35;21.50;99.90
64689;DHT22;62504;46.070;14.492;2022-08-01T05:49:02;21.50;99.90
64689;DHT22;62504;46.070;14.492;2022-08-01T05:51:28;21.60;99.90
64689;DHT22;62504;46.070;14.492;2022-08-01T05:53:54;21.60;99.90
64689;DHT22;62504;46.070;14.492;2022-08-01T05:56:21;21.70;99.90
64689;DHT22;62504;46.070;14.492;2022-08-01T05:58:47;21.70;99.90
64689;DHT22;62504;46.070;14.492;2022-08-01T06:01:13;21.90;99.90
64689;DHT22;62504;46.070;14.492;2022-08-01T06:03:38;21.70;99.90
64689;DHT22;62504;46.070;14.492;2022-08-01T06:06:04;21.80;99.90
64689;DHT22;62504;46.070;14.492;2022-08-01T06:08:30;21.90;99.90
64689;DHT22;62504;46.070;14.492;2022-08-01T06:10:57;21.50;99.90
64689;DHT22;62504;46.070;14.492;2022-08-01T06:13:22;21.10;99.90
64689;DHT22;62504;46.070;14.492;2022-08-01T06:15:48;21.40;99.90
64689;DHT22;62504;46.070;14.492;2022-08-01T06:18:14;21.80;99.90
64689;DHT22;62504;46.070;14.492;2022-08-01T06:20:40;22.20;99.90
64689;DHT22;62504;46.070;14.492;2022-08-01T06:23:07;22.10;99.90
64689;DHT22;62504;46.070;14.492;2022-08-01T06:25:33;22.10;99.90
64689;DHT22;62504;46.070;14.492;2022-08-01T06:27:59;22.20;99.90
64689;DHT22;62504;46.070;14.492;2022-08-01T06:30:25;22.30;99.90
64689;DHT22;62504;46.070;14.492;2022-08-01T06:32:51;22.60;99.90
64689;DHT22;62504;46.070;14.492;2022-08-01T06:35:17;22.80;99.90
64689;DHT22;62504;46.070;14.492;2022-08-01T06:37:43;23.00;99.90
64689;DHT22;62504;46.070;14.492;2022-08-01T06:40:13;22.90;99.90
64689;DHT22;62504;46.070;14.492;2022-08-01T06:42:39;22.70;99.90
64689;DHT22;62504;46.070;14.492;2022-08-01T06:45:06;22.60;99.90
64689;DHT22;62504;46.070;14.492;2022-08-01T06:47:32;22.60;99.90
64689;DHT22;62504;46.070;14.492;2022-08-01T06:49:58;23.00;99.90
64689;DHT22;62504;46.070;14.492;2022-08-01T06:52:24;23.20;99.90
64689;DHT22;62504;46.070;14.492;2022-08-01T06:54:50;23.20;99.90
64689;DHT22;62504;46.070;14.492;2022-08-01T06:57:15;23.30;99.90
64689;DHT22;62504;46.070;14.492;2022-08-01T06:59:41;23.30;99.90
64689;DHT22;62504;46.070;14.492;2022-08-01T07:02:07;23.30;99.90
64689;DHT22;62504;46.070;14.492;2022-08-01T07:04:33;22.60;99.90
64689;DHT22;62504;46.070;14.492;2022-08-01T07:06:59;22.30;99.90
64689;DHT22;62504;46.070;14.492;2022-08-01T07:09:25;22.50;99.90
64689;DHT22;62504;46.070;14.492;2022-08-01T07:11:50;22.60;99.90
64689;DHT22;62504;46.070;14.492;2022-08-01T07:14:21;22.60;99.90
64689;DHT22;62504;46.070;14.492;2022-08-01T07:16:47;23.00;99.90
64689;DHT22;62504;46.070;14.492;2022-08-01T07:19:13;22.80;99.90
64689;DHT22;62504;46.070;14.492;2022-08-01T07:21:39;23.10;99.90
64689;DHT22;62504;46.070;14.492;2022-08-01T07:24:12;23.40;99.90
64689;DHT22;62504;46.070;14.492;2022-08-01T07:26:39;23.70;99.90
64689;DHT22;62504;46.070;14.492;2022-08-01T07:29:05;23.90;99.90
64689;DHT22;62504;46.070;14.492;2022-08-01T07:31:31;24.40;99.90
64689;DHT22;62504;46.070;14.492;2022-08-01T07:33:56;24.20;99.90
64689;DHT22;62504;46.070;14.492;2022-08-01T07:36:22;24.10;99.90
64689;DHT22;62504;46.070;14.492;2022-08-01T07:38:48;24.00;99.90
64689;DHT22;62504;46.070;14.492;2022-08-01T07:41:14;23.60;99.90
64689;DHT22;62504;46.070;14.492;2022-08-01T07:43:40;24.10;99.90
64689;DHT22;62504;46.070;14.492;2022-08-01T07:46:06;24.70;99.90
64689;DHT22;62504;46.070;14.492;2022-08-01T07:48:32;25.90;99.90
64689;DHT22;62504;46.070;14.492;2022-08-01T07:50:58;28.20;99.90
64689;DHT22;62504;46.070;14.492;2022-08-01T07:53:24;27.90;99.90
64689;DHT22;62504;46.070;14.492;2022-08-01T07:55:50;27.40;99.90
64689;DHT22;62504;46.070;14.492;2022-08-01T07:58:16;27.50;99.90
64689;DHT22;62504;46.070;14.492;2022-08-01T08:00:42;27.60;99.90
64689;DHT22;62504;46.070;14.492;2022-08-01T08:03:08;26.60;99.90
64689;DHT22;62504;46.070;14.492;2022-08-01T08:05:34;27.40;99.90
64689;DHT22;62504;46.070;14.492;2022-08-01T08:08:05;28.00;99.90
64689;DHT22;62504;46.070;14.492;2022-08-01T08:10:31;28.80;99.90
64689;DHT22;62504;46.070;14.492;2022-08-01T08:12:57;28.50;99.90
64689;DHT22;62504;46.070;14.492;2022-08-01T08:15:23;28.30;99.90
64689;DHT22;62504;46.070;14.492;2022-08-01T08:17:48;28.30;99.90
64689;DHT22;62504;46.070;14.492;2022-08-01T08:20:14;28.50;99.90
64689;DHT22;62504;46.070;14.492;2022-08-01T08:22:40;28.40;98.50
64689;DHT22;62504;46.070;14.492;2022-08-01T08:25:06;28.40;98.10
64689;DHT22;62504;46.070;14.492;2022-08-01T08:27:32;28.60;98.40
64689;DHT22;62504;46.070;14.492;2022-08-01T08:29:58;27.80;97.70
64689;DHT22;62504;46.070;14.492;2022-08-01T08:32:24;28.20;97.40
64689;DHT22;62504;46.070;14.492;2022-08-01T08:34:49;28.50;96.80
64689;DHT22;62504;46.070;14.492;2022-08-01T08:37:15;30.40;94.60
64689;DHT22;62504;46.070;14.492;2022-08-01T08:39:42;31.80;91.70
64689;DHT22;62504;46.070;14.492;2022-08-01T08:42:10;30.90;91.40
64689;DHT22;62504;46.070;14.492;2022-08-01T08:44:36;31.10;90.90
64689;DHT22;62504;46.070;14.492;2022-08-01T08:47:03;32.20;88.70
64689;DHT22;62504;46.070;14.492;2022-08-01T08:49:32;31.70;86.70
64689;DHT22;62504;46.070;14.492;2022-08-01T08:52:01;29.50;90.70
64689;DHT22;62504;46.070;14.492;2022-08-01T08:54:29;29.30;92.00
64689;DHT22;62504;46.070;14.492;2022-08-01T08:56:55;29.10;91.90
64689;DHT22;62504;46.070;14.492;2022-08-01T08:59:22;29.00;92.70
64689;DHT22;62504;46.070;14.492;2022-08-01T09:01:50;29.00;92.50
64689;DHT22;62504;46.070;14.492;2022-08-01T09:04:16;28.10;92.80
64689;DHT22;62504;46.070;14.492;2022-08-01T09:06:42;28.00;94.10
64689;DHT22;62504;46.070;14.492;2022-08-01T09:09:08;28.30;93.70
64689;DHT22;62504;46.070;14.492;2022-08-01T09:11:36;28.40;93.30
64689;DHT22;62504;46.070;14.492;2022-08-01T09:14:09;27.80;94.10
64689;DHT22;62504;46.070;14.492;2022-08-01T09:16:36;28.10;94.30
64689;DHT22;62504;46.070;14.492;2022-08-01T09:19:13;28.80;93.90
64689;DHT22;62504;46.070;14.492;2022-08-01T09:21:40;28.90;93.10
64689;DHT22;62504;46.070;14.492;2022-08-01T09:24:20;28.90;94.60
64689;DHT22;62504;46.070;14.492;2022-08-01T09:26:45;28.80;94.80
64689;DHT22;62504;46.070;14.492;2022-08-01T09:29:18;29.00;95.60
64689;DHT22;62504;46.070;14.492;2022-08-01T09:31:45;29.10;94.40
64689;DHT22;62504;46.070;14.492;2022-08-01T09:34:12;29.20;94.20
64689;DHT22;62504;46.070;14.492;2022-08-01T09:39:18;29.60;93.00
64689;DHT22;62504;46.070;14.492;2022-08-01T09:41:44;29.80;92.30
64689;DHT22;62504;46.070;14.492;2022-08-01T09:44:10;29.80;91.80
64689;DHT22;62504;46.070;14.492;2022-08-01T09:46:36;30.00;91.40
64689;DHT22;62504;46.070;14.492;2022-08-01T09:49:13;30.10;91.30
64689;DHT22;62504;46.070;14.492;2022-08-01T09:51:40;29.80;91.10
64689;DHT22;62504;46.070;14.492;2022-08-01T09:54:06;29.70;91.40
64689;DHT22;62504;46.070;14.492;2022-08-01T09:56:41;29.60;91.30
64689;DHT22;62504;46.070;14.492;2022-08-01T09:59:08;29.40;91.60
64689;DHT22;62504;46.070;14.492;2022-08-01T10:01:47;29.30;92.00
64689;DHT22;62504;46.070;14.492;2022-08-01T10:04:19;29.20;92.40
64689;DHT22;62504;46.070;14.492;2022-08-01T10:06:46;29.50;94.20
64689;DHT22;62504;46.070;14.492;2022-08-01T10:09:15;29.70;95.10
64689;DHT22;62504;46.070;14.492;2022-08-01T10:11:51;29.50;91.80
64689;DHT22;62504;46.070;14.492;2022-08-01T10:14:17;29.20;92.10
64689;DHT22;62504;46.070;14.492;2022-08-01T10:16:45;29.30;92.40
64689;DHT22;62504;46.070;14.492;2022-08-01T10:19:13;29.50;92.60
64689;DHT22;62504;46.070;14.492;2022-08-01T10:21:39;29.70;92.50
64689;DHT22;62504;46.070;14.492;2022-08-01T10:24:05;29.90;91.70
64689;DHT22;62504;46.070;14.492;2022-08-01T10:26:33;29.90;91.50
64689;DHT22;62504;46.070;14.492;2022-08-01T10:28:59;29.90;91.30
64689;DHT22;62504;46.070;14.492;2022-08-01T10:31:26;30.10;91.10
64689;DHT22;62504;46.070;14.492;2022-08-01T10:33:53;30.20;91.30
64689;DHT22;62504;46.070;14.492;2022-08-01T10:36:20;30.10;90.50
64689;DHT22;62504;46.070;14.492;2022-08-01T10:38:46;30.00;90.30
64689;DHT22;62504;46.070;14.492;2022-08-01T10:41:13;30.10;90.30
64689;DHT22;62504;46.070;14.492;2022-08-01T10:43:40;29.90;90.30
64689;DHT22;62504;46.070;14.492;2022-08-01T10:46:06;29.90;90.80
64689;DHT22;62504;46.070;14.492;2022-08-01T10:49:03;30.00;90.20
64689;DHT22;62504;46.070;14.492;2022-08-01T10:51:30;30.10;89.70
64689;DHT22;62504;46.070;14.492;2022-08-01T10:53:56;30.00;88.40
64689;DHT22;62504;46.070;14.492;2022-08-01T10:56:23;29.90;88.00
64689;DHT22;62504;46.070;14.492;2022-08-01T10:58:49;30.00;88.40
64689;DHT22;62504;46.070;14.492;2022-08-01T11:01:39;29.90;87.40
64689;DHT22;62504;46.070;14.492;2022-08-01T11:04:10;29.90;86.10
64689;DHT22;62504;46.070;14.492;2022-08-01T11:06:39;29.90;84.00
64689;DHT22;62504;46.070;14.492;2022-08-01T11:14:25;29.90;87.40
64689;DHT22;62504;46.070;14.492;2022-08-01T11:16:51;29.90;87.40
64689;DHT22;62504;46.070;14.492;2022-08-01T11:19:17;29.80;86.30
64689;DHT22;62504;46.070;14.492;2022-08-01T11:27:20;29.40;88.10
64689;DHT22;62504;46.070;14.492;2022-08-01T11:35:16;29.40;87.80
64689;DHT22;62504;46.070;14.492;2022-08-01T11:37:42;29.40;85.70
64689;DHT22;62504;46.070;14.492;2022-08-01T11:40:24;29.40;83.60
64689;DHT22;62504;46.070;14.492;2022-08-01T11:45:52;29.30;84.40
64689;DHT22;62504;46.070;14.492;2022-08-01T11:48:22;29.20;84.30
64689;DHT22;62504;46.070;14.492;2022-08-01T11:50:53;29.20;87.00
64689;DHT22;62504;46.070;14.492;2022-08-01T11:53:19;29.20;89.10
64689;DHT22;62504;46.070;14.492;2022-08-01T11:55:47;28.90;91.20
64689;DHT22;62504;46.070;14.492;2022-08-01T11:58:23;28.60;90.70
64689;DHT22;62504;46.070;14.492;2022-08-01T12:00:56;28.50;90.80
64689;DHT22;62504;46.070;14.492;2022-08-01T12:03:27;28.40;90.10
64689;DHT22;62504;46.070;14.492;2022-08-01T12:05:53;28.30;90.30
64689;DHT22;62504;46.070;14.492;2022-08-01T12:08:30;28.30;90.40
64689;DHT22;62504;46.070;14.492;2022-08-01T12:11:03;28.40;90.20
64689;DHT22;62504;46.070;14.492;2022-08-01T12:13:42;28.50;89.40
64689;DHT22;62504;46.070;14.492;2022-08-01T12:16:11;28.50;90.20
64689;DHT22;62504;46.070;14.492;2022-08-01T12:18:43;28.60;90.10
64689;DHT22;62504;46.070;14.492;2022-08-01T12:21:09;28.60;90.00
64689;DHT22;62504;46.070;14.492;2022-08-01T12:23:35;28.50;87.20
64689;DHT22;62504;46.070;14.492;2022-08-01T12:26:00;28.70;88.30
64689;DHT22;62504;46.070;14.492;2022-08-01T12:28:27;28.80;88.20
64689;DHT22;62504;46.070;14.492;2022-08-01T12:30:52;28.60;85.00
64689;DHT22;62504;46.070;14.492;2022-08-01T12:33:19;28.60;85.40
64689;DHT22;62504;46.070;14.492;2022-08-01T12:35:46;28.80;84.50
64689;DHT22;62504;46.070;14.492;2022-08-01T12:38:17;29.10;85.60
64689;DHT22;62504;46.070;14.492;2022-08-01T12:40:45;29.30;83.70
64689;DHT22;62504;46.070;14.492;2022-08-01T12:43:17;29.50;83.70
64689;DHT22;62504;46.070;14.492;2022-08-01T12:45:44;29.50;82.10
64689;DHT22;62504;46.070;14.492;2022-08-01T12:48:13;29.60;83.30
64689;DHT22;62504;46.070;14.492;2022-08-01T12:50:44;29.60;80.50
64689;DHT22;62504;46.070;14.492;2022-08-01T12:53:10;29.50;81.70
64689;DHT22;62504;46.070;14.492;2022-08-01T12:55:51;29.30;80.40
64689;DHT22;62504;46.070;14.492;2022-08-01T12:58:18;29.30;80.60
64689;DHT22;62504;46.070;14.492;2022-08-01T13:00:46;29.30;80.40
64689;DHT22;62504;46.070;14.492;2022-08-01T13:03:19;29.30;81.80
64689;DHT22;62504;46.070;14.492;2022-08-01T13:05:49;29.50;81.00
64689;DHT22;62504;46.070;14.492;2022-08-01T13:08:36;29.40;81.20
64689;DHT22;62504;46.070;14.492;2022-08-01T13:11:14;29.30;78.90
64689;DHT22;62504;46.070;14.492;2022-08-01T13:13:48;29.20;80.00
64689;DHT22;62504;46.070;14.492;2022-08-01T13:16:16;29.40;78.20
64689;DHT22;62504;46.070;14.492;2022-08-01T13:18:48;29.40;76.80
64689;DHT22;62504;46.070;14.492;2022-08-01T13:21:19;29.50;79.60
64689;DHT22;62504;46.070;14.492;2022-08-01T13:24:05;29.50;80.60
64689;DHT22;62504;46.070;14.492;2022-08-01T13:26:50;29.30;78.90
64689;DHT22;62504;46.070;14.492;2022-08-01T13:29:21;29.40;81.10
64689;DHT22;62504;46.070;14.492;2022-08-01T13:31:49;29.40;79.40
64689;DHT22;62504;46.070;14.492;2022-08-01T13:34:15;29.40;81.20
64689;DHT22;62504;46.070;14.492;2022-08-01T13:36:41;29.50;82.60
64689;DHT22;62504;46.070;14.492;2022-08-01T13:39:07;29.60;82.70
64689;DHT22;62504;46.070;14.492;2022-08-01T13:41:51;29.70;83.90
64689;DHT22;62504;46.070;14.492;2022-08-01T13:44:17;29.90;83.40
64689;DHT22;62504;46.070;14.492;2022-08-01T13:46:43;29.70;83.60
64689;DHT22;62504;46.070;14.492;2022-08-01T13:49:10;29.70;84.90
64689;DHT22;62504;46.070;14.492;2022-08-01T13:51:36;29.60;85.40
64689;DHT22;62504;46.070;14.492;2022-08-01T13:54:03;29.70;87.00
64689;DHT22;62504;46.070;14.492;2022-08-01T13:56:29;29.70;86.40
64689;DHT22;62504;46.070;14.492;2022-08-01T13:58:55;29.60;87.30
64689;DHT22;62504;46.070;14.492;2022-08-01T14:01:21;29.60;87.50
64689;DHT22;62504;46.070;14.492;2022-08-01T14:03:47;29.70;87.40
64689;DHT22;62504;46.070;14.492;2022-08-01T14:06:14;29.80;86.60
64689;DHT22;62504;46.070;14.492;2022-08-01T14:08:42;29.60;86.50
64689;DHT22;62504;46.070;14.492;2022-08-01T14:11:07;29.70;86.60
64689;DHT22;62504;46.070;14.492;2022-08-01T14:13:33;29.70;85.80
64689;DHT22;62504;46.070;14.492;2022-08-01T14:15:59;29.80;86.60
64689;DHT22;62504;46.070;14.492;2022-08-01T14:18:25;29.70;87.50
64689;DHT22;62504;46.070;14.492;2022-08-01T14:20:51;29.70;90.00
64689;DHT22;62504;46.070;14.492;2022-08-01T14:23:17;29.80;90.00
64689;DHT22;62504;46.070;14.492;2022-08-01T14:25:43;29.90;90.20
64689;DHT22;62504;46.070;14.492;2022-08-01T14:28:08;29.90;91.30
64689;DHT22;62504;46.070;14.492;2022-08-01T14:30:34;29.80;91.00
64689;DHT22;62504;46.070;14.492;2022-08-01T14:33:00;29.80;89.30
64689;DHT22;62504;46.070;14.492;2022-08-01T14:35:26;29.60;88.80
64689;DHT22;62504;46.070;14.492;2022-08-01T14:37:51;29.50;83.90
64689;DHT22;62504;46.070;14.492;2022-08-01T14:40:17;29.40;85.10
64689;DHT22;62504;46.070;14.492;2022-08-01T14:42:43;29.50;86.80
64689;DHT22;62504;46.070;14.492;2022-08-01T14:45:10;29.60;87.10
64689;DHT22;62504;46.070;14.492;2022-08-01T14:47:37;29.60;85.90
64689;DHT22;62504;46.070;14.492;2022-08-01T14:50:08;29.60;85.70
64689;DHT22;62504;46.070;14.492;2022-08-01T14:52:35;29.70;83.00
64689;DHT22;62504;46.070;14.492;2022-08-01T14:55:01;29.70;81.40
64689;DHT22;62504;46.070;14.492;2022-08-01T14:57:26;29.70;81.20
64689;DHT22;62504;46.070;14.492;2022-08-01T14:59:52;29.60;81.70
64689;DHT22;62504;46.070;14.492;2022-08-01T15:02:18;29.70;81.80
64689;DHT22;62504;46.070;14.492;2022-08-01T15:04:45;29.70;81.50
64689;DHT22;62504;46.070;14.492;2022-08-01T15:07:11;29.70;81.70
64689;DHT22;62504;46.070;14.492;2022-08-01T15:09:37;29.60;82.60
64689;DHT22;62504;46.070;14.492;2022-08-01T15:12:03;29.70;82.80
64689;DHT22;62504;46.070;14.492;2022-08-01T15:14:29;29.60;82.60
64689;DHT22;62504;46.070;14.492;2022-08-01T15:17:23;29.60;82.50
64689;DHT22;62504;46.070;14.492;2022-08-01T15:19:52;29.50;82.80
64689;DHT22;62504;46.070;14.492;2022-08-01T15:22:21;29.60;82.60
64689;DHT22;62504;46.070;14.492;2022-08-01T15:24:48;29.40;83.70
64689;DHT22;62504;46.070;14.492;2022-08-01T15:27:13;29.40;83.30
64689;DHT22;62504;46.070;14.492;2022-08-01T15:29:39;29.40;83.30
64689;DHT22;62504;46.070;14.492;2022-08-01T15:32:05;29.30;83.20
64689;DHT22;62504;46.070;14.492;2022-08-01T15:34:32;29.30;83.00
64689;DHT22;62504;46.070;14.492;2022-08-01T15:36:58;29.40;83.50
64689;DHT22;62504;46.070;14.492;2022-08-01T15:39:24;29.40;84.00
64689;DHT22;62504;46.070;14.492;2022-08-01T15:41:49;29.40;84.50
64689;DHT22;62504;46.070;14.492;2022-08-01T15:44:15;29.30;84.00
64689;DHT22;62504;46.070;14.492;2022-08-01T15:46:48;29.30;84.20
64689;DHT22;62504;46.070;14.492;2022-08-01T15:49:15;29.20;84.80
64689;DHT22;62504;46.070;14.492;2022-08-01T15:51:40;29.10;84.60
64689;DHT22;62504;46.070;14.492;2022-08-01T15:54:06;29.30;85.10
64689;DHT22;62504;46.070;14.492;2022-08-01T15:56:33;29.30;84.30
64689;DHT22;62504;46.070;14.492;2022-08-01T15:58:59;29.30;84.90
64689;DHT22;62504;46.070;14.492;2022-08-01T16:01:24;29.40;84.60
64689;DHT22;62504;46.070;14.492;2022-08-01T16:03:53;29.30;85.00